Time;durP1;ratioP1;P1;durP2;ratioP2;P2;SDS_P1;SDS_P2;PMS_P1;PMS_P2;Temp;Humidity;BMP_temperature;BMP_pressure;BME280_temperature;BME280_humidity;BME280_pressure;Samples;Min_cycle;Max_cycle;Signal;HPM_P1;HPM_P2
2020/12/30 00:00:29;;;;;;;14.97;13.67;;;4.80;99.90;;;;;;5053880;28;20444;-66
2020/12/30 00:02:55;;;;;;;14.80;13.53;;;4.80;99.90;;;;;;5054261;28;20501;-67
2020/12/30 00:05:21;;;;;;;13.17;12.07;;;4.80;99.90;;;;;;5054109;28;20984;-65
2020/12/30 00:07:48;;;;;;;14.23;13.13;;;4.80;99.90;;;;;;5055135;28;20919;-65
2020/12/30 00:10:17;;;;;;;14.90;13.70;;;4.90;99.90;;;;;;5054757;28;20459;-67
2020/12/30 00:12:43;;;;;;;13.40;12.03;;;4.80;99.90;;;;;;5055094;28;20479;-66
2020/12/30 00:15:11;;;;;;;14.03;12.93;;;4.80;99.90;;;;;;5055014;28;20444;-66
2020/12/30 00:17:40;;;;;;;13.50;12.50;;;4.80;99.90;;;;;;5054924;28;20442;-67
2020/12/30 00:20:06;;;;;;;13.80;12.90;;;4.80;99.90;;;;;;5054645;28;20468;-66
2020/12/30 00:22:32;;;;;;;25.53;13.53;;;4.80;99.90;;;;;;5054772;28;20859;-66
2020/12/30 00:25:00;;;;;;;14.80;13.50;;;4.80;99.90;;;;;;5054755;28;20929;-68
2020/12/30 00:27:26;;;;;;;15.17;13.97;;;4.80;99.90;;;;;;5054634;28;20479;-68
2020/12/30 00:29:52;;;;;;;14.10;12.77;;;4.80;99.90;;;;;;5054583;28;20460;-67
2020/12/30 00:32:18;;;;;;;12.97;11.97;;;4.80;99.90;;;;;;5054559;28;20439;-67
2020/12/30 00:34:45;;;;;;;13.30;12.10;;;4.80;99.90;;;;;;5054613;28;20440;-67
2020/12/30 00:37:12;;;;;;;12.67;11.77;;;4.70;99.90;;;;;;5054585;28;20451;-68
2020/12/30 00:39:39;;;;;;;13.13;12.17;;;4.80;99.90;;;;;;5054106;28;20472;-66
2020/12/30 00:42:06;;;;;;;12.13;11.33;;;4.80;99.90;;;;;;5054529;28;20451;-67
2020/12/30 00:44:32;;;;;;;14.93;13.50;;;4.80;99.90;;;;;;5054381;28;20444;-67
2020/12/30 00:46:59;;;;;;;12.73;11.63;;;4.80;99.90;;;;;;5054398;28;20454;-68
2020/12/30 00:49:26;;;;;;;13.67;12.60;;;4.80;99.90;;;;;;5054259;28;20824;-66
2020/12/30 00:51:53;;;;;;;12.57;11.60;;;4.80;99.90;;;;;;5054047;28;20436;-68
2020/12/30 00:54:20;;;;;;;11.87;11.07;;;4.80;99.90;;;;;;5054236;28;20440;-68
2020/12/30 00:56:46;;;;;;;13.63;12.53;;;4.80;99.90;;;;;;5054412;28;20440;-68
2020/12/30 00:59:13;;;;;;;11.37;10.63;;;4.80;99.90;;;;;;5053119;28;20452;-67
2020/12/30 01:01:40;;;;;;;12.50;11.40;;;4.90;99.90;;;;;;5054062;28;20466;-67
2020/12/30 01:04:06;;;;;;;13.63;12.63;;;4.80;99.90;;;;;;5054144;28;20448;-67
2020/12/30 01:06:33;;;;;;;12.87;11.77;;;4.80;99.90;;;;;;5054007;28;20436;-68
2020/12/30 01:08:59;;;;;;;14.97;13.63;;;4.80;99.90;;;;;;5053563;28;20484;-69
2020/12/30 01:11:27;;;;;;;13.40;12.20;;;4.90;99.90;;;;;;5053676;28;20444;-69
2020/12/30 01:13:53;;;;;;;13.20;12.13;;;4.90;99.90;;;;;;5053841;28;20526;-69
2020/12/30 01:16:20;;;;;;;13.43;12.33;;;4.90;99.90;;;;;;5053993;28;20441;-69
2020/12/30 01:18:47;;;;;;;12.50;11.50;;;4.90;99.90;;;;;;5053667;28;20475;-69
2020/12/30 01:21:14;;;;;;;14.90;12.20;;;4.90;99.90;;;;;;5053471;28;20444;-69
2020/12/30 01:23:40;;;;;;;13.43;12.43;;;4.90;99.90;;;;;;5053925;28;20450;-69
2020/12/30 01:26:06;;;;;;;13.83;12.73;;;4.90;99.90;;;;;;5053683;28;20447;-69
2020/12/30 01:28:33;;;;;;;13.43;12.27;;;4.90;99.90;;;;;;5053395;28;20495;-67
2020/12/30 01:30:59;;;;;;;13.77;12.77;;;4.90;99.90;;;;;;5053425;28;20440;-68
2020/12/30 01:33:26;;;;;;;12.63;11.63;;;4.90;99.90;;;;;;5053497;28;20448;-67
2020/12/30 01:35:52;;;;;;;13.63;12.53;;;4.90;99.90;;;;;;5053438;28;20436;-69
2020/12/30 01:38:19;;;;;;;13.37;12.23;;;4.90;99.90;;;;;;5053267;28;20440;-69
2020/12/30 01:40:45;;;;;;;12.73;11.70;;;4.90;99.90;;;;;;5053191;28;20455;-68
2020/12/30 01:43:12;;;;;;;13.23;12.03;;;4.90;99.90;;;;;;5053315;28;20451;-68
2020/12/30 01:45:39;;;;;;;13.27;12.10;;;4.90;99.90;;;;;;5053441;28;20942;-69
2020/12/30 01:48:09;;;;;;;12.90;11.50;;;4.90;99.90;;;;;;5053415;28;21020;-66
2020/12/30 01:50:36;;;;;;;12.90;11.43;;;5.00;99.90;;;;;;5053296;28;20448;-68
2020/12/30 01:53:03;;;;;;;12.10;11.00;;;5.00;99.90;;;;;;5053439;28;20445;-69
2020/12/30 01:55:32;;;;;;;11.80;10.67;;;5.00;99.90;;;;;;5053223;28;20475;-69
2020/12/30 01:57:58;;;;;;;12.17;11.23;;;5.00;99.90;;;;;;5053145;28;20479;-68
2020/12/30 02:00:25;;;;;;;16.57;14.87;;;5.00;99.90;;;;;;5052869;28;20833;-68
2020/12/30 02:03:01;;;;;;;12.73;11.43;;;5.10;99.90;;;;;;5053122;28;20854;-69
2020/12/30 02:05:30;;;;;;;11.80;10.93;;;5.10;99.90;;;;;;5053226;28;20451;-69
2020/12/30 02:07:58;;;;;;;11.67;10.77;;;5.00;99.90;;;;;;5053024;28;20476;-69
2020/12/30 02:10:26;;;;;;;13.37;12.13;;;5.00;99.90;;;;;;5052516;28;20464;-68
2020/12/30 02:12:53;;;;;;;11.63;10.30;;;5.00;99.90;;;;;;5052773;28;20444;-69
2020/12/30 02:15:28;;;;;;;12.47;11.17;;;5.00;99.90;;;;;;5052491;28;20440;-69
2020/12/30 02:17:54;;;;;;;13.20;11.93;;;5.00;99.90;;;;;;5052650;28;20447;-69
2020/12/30 02:20:21;;;;;;;13.00;11.80;;;5.00;99.90;;;;;;5052287;28;20475;-69
2020/12/30 02:22:56;;;;;;;13.40;12.20;;;5.00;99.90;;;;;;5052599;28;20467;-69
2020/12/30 02:25:23;;;;;;;14.43;13.13;;;5.00;99.90;;;;;;5052546;28;20443;-67
2020/12/30 02:27:50;;;;;;;12.67;11.63;;;4.90;99.90;;;;;;5052359;28;20483;-66
2020/12/30 02:30:17;;;;;;;12.73;11.63;;;5.00;99.90;;;;;;5052342;28;20467;-65
2020/12/30 02:32:43;;;;;;;11.90;10.83;;;4.90;99.90;;;;;;5052417;28;20440;-66
2020/12/30 02:35:10;;;;;;;13.37;12.17;;;4.90;99.90;;;;;;5052319;28;20436;-66
2020/12/30 02:37:36;;;;;;;12.03;10.90;;;4.80;99.90;;;;;;5052297;28;20515;-69
2020/12/30 02:40:03;;;;;;;13.57;12.37;;;4.70;99.90;;;;;;5052011;28;20551;-67
2020/12/30 02:42:30;;;;;;;12.33;11.30;;;4.70;99.90;;;;;;5052212;28;20470;-66
2020/12/30 02:45:02;;;;;;;11.27;10.37;;;4.60;99.90;;;;;;5052259;28;20440;-65
2020/12/30 02:47:28;;;;;;;12.33;11.30;;;4.60;99.90;;;;;;5052129;28;20880;-66
2020/12/30 02:49:54;;;;;;;14.00;12.60;;;4.50;99.90;;;;;;5051838;28;20467;-66
2020/12/30 02:52:20;;;;;;;12.37;11.13;;;4.40;99.90;;;;;;5052105;28;20448;-65
2020/12/30 02:54:46;;;;;;;13.03;11.93;;;4.30;99.90;;;;;;5051956;28;20448;-66
2020/12/30 02:57:13;;;;;;;12.80;11.80;;;4.20;99.90;;;;;;5052063;28;20498;-66
2020/12/30 02:59:40;;;;;;;14.23;12.07;;;4.20;99.90;;;;;;5051757;28;20506;-70
2020/12/30 03:02:06;;;;;;;14.63;13.23;;;4.10;99.90;;;;;;5051779;28;20448;-66
2020/12/30 03:04:32;;;;;;;14.83;12.70;;;4.10;99.90;;;;;;5051908;28;20448;-66
2020/12/30 03:06:58;;;;;;;14.17;12.90;;;4.00;99.90;;;;;;5052050;28;20450;-66
2020/12/30 03:09:25;;;;;;;15.63;13.27;;;4.00;99.90;;;;;;5051728;28;21078;-66
2020/12/30 03:11:51;;;;;;;13.73;12.47;;;4.00;99.90;;;;;;5051892;28;20463;-66
2020/12/30 03:14:18;;;;;;;12.33;11.23;;;4.00;99.90;;;;;;5051792;28;20444;-66
2020/12/30 03:16:45;;;;;;;12.60;11.30;;;4.00;99.90;;;;;;5051713;28;20448;-67
2020/12/30 03:19:11;;;;;;;14.73;13.17;;;4.00;99.90;;;;;;5051572;28;20434;-67
2020/12/30 03:21:38;;;;;;;13.17;11.87;;;4.00;99.90;;;;;;5050940;28;20448;-67
2020/12/30 03:24:04;;;;;;;12.80;11.60;;;4.00;99.90;;;;;;5051683;28;20448;-67
2020/12/30 03:26:32;;;;;;;12.23;11.23;;;3.90;99.90;;;;;;5051602;28;20451;-68
2020/12/30 03:28:58;;;;;;;15.53;13.90;;;3.90;99.90;;;;;;5051470;28;20903;-66
2020/12/30 03:31:25;;;;;;;15.43;13.57;;;3.90;99.90;;;;;;5051255;28;20443;-66
2020/12/30 03:33:52;;;;;;;14.93;13.20;;;3.80;99.90;;;;;;5051579;28;20527;-66
2020/12/30 03:36:18;;;;;;;14.37;13.10;;;3.70;99.90;;;;;;5051460;28;20444;-68
2020/12/30 03:38:44;;;;;;;14.10;12.70;;;3.60;99.90;;;;;;5051361;28;20533;-67
2020/12/30 03:41:11;;;;;;;13.97;12.57;;;3.40;99.90;;;;;;5051229;28;20440;-68
2020/12/30 03:43:37;;;;;;;14.83;13.07;;;3.30;99.90;;;;;;5051344;28;20543;-68
2020/12/30 03:46:03;;;;;;;15.87;14.17;;;3.30;99.90;;;;;;5051486;28;20573;-68
2020/12/30 03:48:29;;;;;;;16.10;12.53;;;3.20;99.90;;;;;;5051138;28;20494;-66
2020/12/30 03:50:56;;;;;;;15.80;14.20;;;3.10;99.90;;;;;;5051178;28;20447;-67
2020/12/30 03:53:22;;;;;;;17.90;13.97;;;3.00;99.90;;;;;;5051472;28;20498;-68
2020/12/30 03:55:49;;;;;;;18.63;14.20;;;2.90;99.90;;;;;;5051237;28;20448;-68
2020/12/30 03:58:15;;;;;;;18.97;14.20;;;2.80;99.90;;;;;;5051292;28;20436;-68
2020/12/30 04:00:41;;;;;;;13.70;12.30;;;2.80;99.90;;;;;;5051022;28;20475;-67
2020/12/30 04:03:07;;;;;;;18.60;13.77;;;2.80;99.90;;;;;;5051275;28;20510;-68
2020/12/30 04:05:34;;;;;;;14.60;12.57;;;2.80;99.90;;;;;;5051225;28;20810;-66
2020/12/30 04:08:01;;;;;;;24.67;17.77;;;2.70;99.90;;;;;;5051165;28;20486;-66
2020/12/30 04:10:27;;;;;;;18.47;14.73;;;2.60;99.90;;;;;;5050891;28;20487;-68
2020/12/30 04:12:53;;;;;;;19.13;15.17;;;2.60;99.90;;;;;;5051226;28;20929;-68
2020/12/30 04:15:20;;;;;;;18.30;14.27;;;2.50;99.90;;;;;;5051047;28;20448;-68
2020/12/30 04:17:46;;;;;;;17.20;14.90;;;2.50;99.90;;;;;;5051135;28;20448;-68
2020/12/30 04:20:12;;;;;;;19.30;15.30;;;2.50;99.90;;;;;;5050913;28;20464;-68
2020/12/30 04:22:38;;;;;;;20.67;15.37;;;2.50;99.90;;;;;;5051133;28;20440;-68
2020/12/30 04:25:05;;;;;;;20.10;16.23;;;2.50;99.90;;;;;;5051143;28;20440;-68
2020/12/30 04:27:32;;;;;;;16.53;14.77;;;2.50;99.90;;;;;;5051096;28;20816;-67
2020/12/30 04:29:58;;;;;;;20.90;16.07;;;2.60;99.90;;;;;;5050666;28;20896;-68
2020/12/30 04:32:24;;;;;;;20.30;15.17;;;2.60;99.90;;;;;;5051047;28;20448;-67
2020/12/30 04:34:50;;;;;;;18.83;15.60;;;2.60;99.90;;;;;;5052811;28;20466;-68
2020/12/30 04:37:17;;;;;;;22.70;15.70;;;2.60;99.90;;;;;;5054589;28;20933;-66
2020/12/30 04:39:43;;;;;;;26.80;15.30;;;2.60;99.90;;;;;;5099503;22;20543;-64
2020/12/30 04:42:10;;;;;;;19.03;15.30;;;2.60;99.90;;;;;;5094536;28;20464;-64
2020/12/30 04:44:42;;;;;;;25.03;17.10;;;2.60;99.90;;;;;;5094673;28;20444;-64
2020/12/30 04:47:09;;;;;;;22.30;15.20;;;2.50;99.90;;;;;;5094837;28;20447;-64
2020/12/30 04:49:35;;;;;;;20.10;15.00;;;2.50;99.90;;;;;;5094540;28;20482;-64
2020/12/30 04:52:02;;;;;;;19.33;15.73;;;2.50;99.90;;;;;;5094629;28;20453;-64
2020/12/30 04:54:28;;;;;;;23.50;15.87;;;2.60;99.90;;;;;;5094664;28;21042;-64
2020/12/30 04:56:58;;;;;;;19.90;14.80;;;2.60;99.90;;;;;;5094487;28;20446;-64
2020/12/30 04:59:28;;;;;;;20.10;15.23;;;2.70;99.90;;;;;;5094507;28;20462;-64
2020/12/30 05:02:04;;;;;;;17.30;13.60;;;2.90;99.90;;;;;;5094185;28;20880;-64
2020/12/30 05:04:31;;;;;;;23.37;13.97;;;2.90;99.90;;;;;;5094448;28;20499;-64
2020/12/30 05:07:05;;;;;;;15.97;12.70;;;3.00;99.90;;;;;;5094493;28;20445;-64
2020/12/30 05:09:33;;;;;;;17.77;13.90;;;3.10;99.90;;;;;;5094122;28;20485;-64
2020/12/30 05:12:00;;;;;;;16.20;12.60;;;3.10;99.90;;;;;;5094216;28;20500;-65
2020/12/30 05:14:27;;;;;;;15.73;14.13;;;3.20;99.90;;;;;;5094225;28;20434;-64
2020/12/30 05:16:54;;;;;;;13.27;11.80;;;3.20;99.90;;;;;;5094163;28;20446;-64
2020/12/30 05:19:20;;;;;;;13.30;11.90;;;3.20;99.90;;;;;;5094275;28;20458;-64
2020/12/30 05:21:46;;;;;;;18.27;12.60;;;3.30;99.90;;;;;;5093719;28;20491;-65
2020/12/30 05:24:12;;;;;;;14.57;12.97;;;3.30;99.90;;;;;;5093959;28;20446;-64
2020/12/30 05:26:41;;;;;;;17.43;13.17;;;3.30;99.90;;;;;;5094049;28;20445;-64
2020/12/30 05:29:08;;;;;;;17.13;12.73;;;3.30;99.90;;;;;;5093664;28;20474;-65
2020/12/30 05:31:35;;;;;;;13.80;11.53;;;3.30;99.90;;;;;;5093616;28;20445;-65
2020/12/30 05:34:01;;;;;;;20.13;12.30;;;3.40;99.90;;;;;;5093844;28;20445;-65
2020/12/30 05:36:27;;;;;;;14.23;12.00;;;3.40;99.90;;;;;;5093796;28;20445;-65
2020/12/30 05:38:53;;;;;;;15.73;13.10;;;3.30;99.90;;;;;;5093386;28;20482;-65
2020/12/30 05:41:21;;;;;;;18.57;14.30;;;3.30;99.90;;;;;;5093473;28;20434;-65
2020/12/30 05:43:47;;;;;;;18.67;13.70;;;3.20;99.90;;;;;;5093574;28;20450;-65
2020/12/30 05:46:26;;;;;;;21.33;13.90;;;3.20;99.90;;;;;;5093245;28;20692;-65
2020/12/30 05:48:53;;;;;;;18.17;14.23;;;3.20;99.90;;;;;;5093140;28;20550;-65
2020/12/30 05:51:26;;;;;;;17.70;13.93;;;3.30;99.90;;;;;;5093180;28;20446;-65
2020/12/30 05:54:11;;;;;;;18.03;13.40;;;3.40;99.90;;;;;;5093513;28;20450;-65
2020/12/30 05:56:38;;;;;;;18.60;13.90;;;3.40;99.90;;;;;;5093387;28;20438;-65
2020/12/30 05:59:06;;;;;;;16.93;14.00;;;3.50;99.90;;;;;;5093221;28;20503;-65
2020/12/30 06:01:34;;;;;;;16.67;14.80;;;3.50;99.90;;;;;;5092810;28;20974;-66
2020/12/30 06:04:17;;;;;;;18.47;14.60;;;3.60;99.90;;;;;;5093269;28;20905;-65
2020/12/30 06:06:44;;;;;;;16.20;13.13;;;3.70;99.90;;;;;;5093262;28;20449;-65
2020/12/30 06:09:17;;;;;;;18.17;14.50;;;3.70;99.90;;;;;;5092964;28;20494;-65
2020/12/30 06:11:52;;;;;;;15.87;12.70;;;3.70;99.90;;;;;;5092831;28;20472;-65
2020/12/30 06:14:19;;;;;;;19.97;14.77;;;3.80;99.90;;;;;;5093014;28;20442;-66
2020/12/30 06:16:46;;;;;;;18.53;13.97;;;3.90;99.90;;;;;;5092987;28;20444;-65
2020/12/30 06:19:13;;;;;;;16.83;13.33;;;3.90;99.90;;;;;;5093013;28;20458;-66
2020/12/30 06:21:45;;;;;;;16.60;12.37;;;3.90;99.90;;;;;;5096642;28;20495;-65
2020/12/30 06:24:13;;;;;;;16.70;12.10;;;3.90;99.90;;;;;;5113004;28;20446;-65
2020/12/30 06:26:39;;;;;;;14.20;12.30;;;3.90;99.90;;;;;;5113133;28;20854;-65
2020/12/30 06:29:12;;;;;;;16.80;14.27;;;3.90;99.90;;;;;;5112930;28;20489;-65
2020/12/30 06:31:46;;;;;;;15.83;14.23;;;3.90;99.90;;;;;;5112379;28;20437;-65
2020/12/30 06:34:13;;;;;;;17.80;14.13;;;3.90;99.90;;;;;;5112885;28;20464;-65
2020/12/30 06:36:41;;;;;;;19.17;14.10;;;3.90;99.90;;;;;;5112963;28;20839;-65
2020/12/30 06:39:18;;;;;;;24.43;14.47;;;3.90;99.90;;;;;;5112590;28;20473;-65
2020/12/30 06:41:56;;;;;;;15.37;13.10;;;3.90;99.90;;;;;;5112518;28;20442;-65
2020/12/30 06:44:36;;;;;;;16.47;13.10;;;4.00;99.90;;;;;;5112827;28;20446;-65
2020/12/30 06:47:04;;;;;;;16.50;13.50;;;3.90;99.90;;;;;;5112746;28;20494;-64
2020/12/30 06:49:32;;;;;;;16.13;12.90;;;3.90;99.90;;;;;;5112638;28;20924;-65
2020/12/30 06:52:00;;;;;;;16.63;12.70;;;3.90;99.90;;;;;;5112391;28;20463;-64
2020/12/30 06:54:48;;;;;;;15.67;12.60;;;3.90;99.90;;;;;;5112609;28;20989;-65
2020/12/30 06:57:38;;;;;;;18.73;16.73;;;4.00;99.90;;;;;;5111771;28;20453;-65
2020/12/30 07:00:34;;;;;;;22.27;15.30;;;3.90;99.90;;;;;;5112375;28;20464;-65
2020/12/30 07:03:18;;;;;;;18.30;15.27;;;3.90;99.90;;;;;;5112276;28;20445;-65
2020/12/30 07:05:47;;;;;;;23.80;16.90;;;3.90;99.90;;;;;;5112505;28;20525;-65
2020/12/30 07:08:38;;;;;;;19.57;15.50;;;3.90;99.90;;;;;;5112140;28;20488;-64
2020/12/30 07:11:07;;;;;;;21.03;15.13;;;3.90;99.90;;;;;;5111938;28;20529;-65
2020/12/30 07:13:40;;;;;;;20.43;16.53;;;3.90;99.90;;;;;;5112469;28;20437;-65
2020/12/30 07:16:15;;;;;;;16.33;13.63;;;3.90;99.90;;;;;;5112210;28;20442;-65
2020/12/30 07:18:46;;;;;;;21.07;18.00;;;3.80;99.90;;;;;;5112400;28;20461;-65
2020/12/30 07:21:13;;;;;;;18.87;15.77;;;3.80;99.90;;;;;;5111862;28;20438;-65
2020/12/30 07:23:41;;;;;;;20.90;16.07;;;3.80;99.90;;;;;;5112231;28;20438;-65
2020/12/30 07:26:14;;;;;;;23.00;16.27;;;3.80;99.90;;;;;;5112101;28;20441;-65
2020/12/30 07:28:43;;;;;;;18.50;15.53;;;3.80;99.90;;;;;;5111977;28;20477;-65
2020/12/30 07:31:10;;;;;;;19.13;16.43;;;3.90;99.90;;;;;;5111724;28;20796;-65
2020/12/30 07:33:37;;;;;;;18.90;16.03;;;3.90;99.90;;;;;;5112339;28;20935;-67
2020/12/30 07:36:05;;;;;;;20.30;15.90;;;3.90;99.90;;;;;;5111780;28;20444;-68
2020/12/30 07:38:33;;;;;;;22.20;16.37;;;4.00;99.90;;;;;;5111988;28;20448;-66
2020/12/30 07:41:04;;;;;;;20.83;16.73;;;4.00;99.90;;;;;;5111942;28;20834;-65
2020/12/30 07:43:44;;;;;;;17.23;15.13;;;4.00;99.90;;;;;;5113300;28;20437;-67
2020/12/30 07:46:18;;;;;;;20.50;15.23;;;4.10;99.90;;;;;;5112562;28;20445;-66
2020/12/30 07:48:45;;;;;;;18.27;16.47;;;4.10;99.90;;;;;;5111776;28;20529;-66
2020/12/30 07:51:11;;;;;;;18.77;16.60;;;4.20;99.90;;;;;;5111544;28;20437;-67
2020/12/30 07:53:37;;;;;;;19.23;15.70;;;4.30;99.90;;;;;;5112046;28;20445;-66
2020/12/30 07:56:04;;;;;;;22.00;15.70;;;4.40;99.90;;;;;;5112043;28;20532;-66
2020/12/30 07:58:30;;;;;;;20.67;15.40;;;4.50;99.90;;;;;;5111757;28;20448;-66
2020/12/30 08:00:58;;;;;;;21.60;17.00;;;4.50;99.90;;;;;;5111783;28;20853;-67
2020/12/30 08:03:24;;;;;;;20.80;15.57;;;4.50;99.90;;;;;;5112155;28;20939;-68
2020/12/30 08:05:51;;;;;;;19.77;16.50;;;4.50;99.90;;;;;;5111838;28;20438;-66
2020/12/30 08:08:18;;;;;;;21.23;16.80;;;4.60;99.90;;;;;;5112996;28;20484;-65
2020/12/30 08:10:48;;;;;;;19.17;15.20;;;4.70;99.90;;;;;;5115195;28;20465;-64
2020/12/30 08:13:15;;;;;;;21.33;17.10;;;4.70;99.90;;;;;;5115707;28;20441;-64
2020/12/30 08:15:51;;;;;;;18.70;16.53;;;4.70;99.90;;;;;;5115881;28;20447;-68
2020/12/30 08:18:18;;;;;;;22.27;16.33;;;4.80;99.90;;;;;;5115641;28;20433;-68
2020/12/30 08:20:45;;;;;;;20.40;16.43;;;4.80;99.90;;;;;;5115425;28;20472;-65
2020/12/30 08:23:11;;;;;;;22.47;17.97;;;4.80;99.90;;;;;;5115765;28;20444;-66
2020/12/30 08:25:38;;;;;;;24.83;18.03;;;4.90;99.90;;;;;;5115518;28;20445;-68
2020/12/30 08:28:05;;;;;;;23.00;16.87;;;4.90;99.90;;;;;;5115486;28;20527;-66
2020/12/30 08:30:34;;;;;;;22.97;16.83;;;4.90;99.90;;;;;;5115082;28;20461;-65
2020/12/30 08:33:07;;;;;;;20.90;18.27;;;5.00;99.90;;;;;;5115300;28;20437;-65
2020/12/30 08:35:39;;;;;;;20.37;18.27;;;5.00;99.90;;;;;;5115337;28;20434;-65
2020/12/30 08:38:12;;;;;;;25.80;19.27;;;5.00;99.90;;;;;;5115364;28;20814;-65
2020/12/30 08:40:40;;;;;;;19.67;17.60;;;5.00;99.90;;;;;;5115157;28;20514;-64
2020/12/30 08:43:36;;;;;;;25.87;18.30;;;5.00;99.90;;;;;;5115396;28;20445;-64
2020/12/30 08:46:07;;;;;;;21.07;18.63;;;5.00;99.90;;;;;;5111813;28;20453;-64
2020/12/30 08:48:45;;;;;;;20.80;17.47;;;5.00;99.90;;;;;;5115103;28;20469;-65
2020/12/30 08:51:27;;;;;;;20.27;18.17;;;5.00;99.90;;;;;;5114666;28;20441;-67
2020/12/30 08:53:54;;;;;;;23.80;17.73;;;5.00;99.90;;;;;;5114881;28;20448;-65
2020/12/30 08:56:23;;;;;;;23.73;20.50;;;5.00;99.90;;;;;;5114808;28;20449;-66
2020/12/30 08:58:57;;;;;;;20.80;17.27;;;5.00;99.90;;;;;;5114790;28;20453;-65
2020/12/30 09:01:26;;;;;;;24.90;17.53;;;5.00;99.90;;;;;;5114494;28;20527;-66
2020/12/30 09:03:55;;;;;;;21.13;17.53;;;5.00;99.90;;;;;;5114935;28;20525;-69
2020/12/30 09:06:32;;;;;;;19.20;16.40;;;5.00;99.90;;;;;;5114556;28;20522;-67
2020/12/30 09:09:10;;;;;;;22.20;17.63;;;5.10;99.90;;;;;;5114652;28;20513;-64
2020/12/30 09:11:39;;;;;;;19.80;17.70;;;5.10;99.90;;;;;;5114507;28;20445;-65
2020/12/30 09:14:17;;;;;;;19.27;16.67;;;5.10;99.90;;;;;;5114551;28;20452;-65
2020/12/30 09:17:00;;;;;;;21.30;17.70;;;5.10;99.90;;;;;;5114568;28;20810;-66
2020/12/30 09:19:28;;;;;;;19.93;17.80;;;5.10;99.90;;;;;;5114022;28;21335;-64
2020/12/30 09:22:07;;;;;;;23.90;21.27;;;5.10;99.90;;;;;;5113957;28;20446;-66
2020/12/30 09:24:36;;;;;;;18.83;16.50;;;5.10;99.90;;;;;;5114278;28;20441;-66
2020/12/30 09:27:15;;;;;;;23.23;16.70;;;5.20;99.90;;;;;;5114287;28;20444;-65
2020/12/30 09:29:42;;;;;;;20.20;17.33;;;5.30;99.90;;;;;;5114116;28;20508;-66
2020/12/30 09:32:08;;;;;;;19.53;17.47;;;5.30;99.90;;;;;;5114072;28;20860;-64
2020/12/30 09:34:34;;;;;;;20.70;17.13;;;5.40;99.90;;;;;;5114264;28;20444;-67
2020/12/30 09:37:00;;;;;;;21.17;17.77;;;5.40;99.90;;;;;;5114044;28;20452;-65
2020/12/30 09:39:28;;;;;;;18.97;16.57;;;5.40;99.90;;;;;;5113809;28;20470;-66
2020/12/30 09:42:02;;;;;;;22.53;18.80;;;5.40;99.90;;;;;;5113789;28;20437;-64
2020/12/30 09:44:28;;;;;;;23.20;18.23;;;5.30;99.90;;;;;;5113959;28;20458;-64
2020/12/30 09:46:55;;;;;;;22.10;18.43;;;5.30;99.90;;;;;;5113831;28;20445;-65
2020/12/30 09:49:22;;;;;;;26.90;21.20;;;5.40;99.90;;;;;;5113739;28;20825;-65
2020/12/30 09:51:54;;;;;;;20.03;17.93;;;5.50;99.90;;;;;;5113722;28;20545;-64
2020/12/30 09:54:20;;;;;;;23.17;17.50;;;5.70;99.90;;;;;;5114133;28;20441;-64
2020/12/30 09:56:50;;;;;;;21.20;18.90;;;5.90;99.90;;;;;;5113867;28;21004;-64
2020/12/30 09:59:20;;;;;;;20.20;17.40;;;6.10;99.90;;;;;;5113742;28;20453;-65
2020/12/30 10:01:48;;;;;;;24.90;20.70;;;6.30;99.90;;;;;;5113443;28;20444;-65
2020/12/30 10:04:14;;;;;;;22.03;19.63;;;6.40;99.90;;;;;;5113572;28;20507;-65
2020/12/30 10:06:40;;;;;;;22.07;19.93;;;6.50;99.90;;;;;;5113098;28;20442;-65
2020/12/30 10:09:06;;;;;;;22.03;19.73;;;6.50;99.90;;;;;;5113398;28;20492;-65
2020/12/30 10:11:32;;;;;;;21.90;19.60;;;6.60;99.90;;;;;;5113069;28;20441;-65
2020/12/30 10:14:00;;;;;;;21.43;19.10;;;6.70;99.90;;;;;;5113372;28;20442;-65
2020/12/30 10:16:30;;;;;;;23.60;19.73;;;6.80;99.90;;;;;;5113216;28;20494;-65
2020/12/30 10:18:57;;;;;;;23.77;20.97;;;6.70;99.90;;;;;;5113297;28;20461;-67
2020/12/30 10:21:28;;;;;;;23.93;21.50;;;6.90;99.90;;;;;;5112633;28;20449;-69
2020/12/30 10:23:54;;;;;;;21.70;19.80;;;7.20;99.90;;;;;;5088324;28;20494;-67
2020/12/30 10:26:21;;;;;;;24.50;22.07;;;7.50;99.90;;;;;;5112403;28;20441;-68
2020/12/30 10:28:47;;;;;;;22.87;20.03;;;7.70;99.90;;;;;;5111684;28;21096;-68
2020/12/30 10:31:14;;;;;;;21.87;19.67;;;7.90;99.90;;;;;;5110616;28;20451;-66
2020/12/30 10:33:40;;;;;;;22.50;20.43;;;7.90;99.90;;;;;;5111323;28;20476;-67
2020/12/30 10:36:07;;;;;;;23.77;21.67;;;7.90;99.90;;;;;;5111658;28;20978;-67
2020/12/30 10:38:33;;;;;;;23.97;21.60;;;7.90;99.90;;;;;;5111725;28;20448;-68
2020/12/30 10:41:00;;;;;;;22.57;20.37;;;7.70;99.90;;;;;;5113032;28;20441;-67
2020/12/30 10:43:26;;;;;;;22.87;20.73;;;7.70;99.90;;;;;;5112609;28;20441;-67
2020/12/30 10:45:52;;;;;;;22.30;20.40;;;7.80;99.90;;;;;;5112560;28;20446;-67
2020/12/30 10:48:19;;;;;;;22.47;20.50;;;7.90;99.90;;;;;;5112356;28;20485;-67
2020/12/30 10:50:46;;;;;;;22.83;20.73;;;7.90;99.90;;;;;;5112133;28;20465;-67
2020/12/30 10:53:12;;;;;;;22.33;20.40;;;8.00;99.90;;;;;;5112389;28;20452;-66
2020/12/30 10:55:38;;;;;;;22.40;20.40;;;8.00;99.90;;;;;;5112456;28;20513;-67
2020/12/30 10:58:04;;;;;;;21.50;19.60;;;8.00;99.90;;;;;;5112414;28;20445;-67
2020/12/30 11:00:31;;;;;;;23.57;21.60;;;7.90;99.90;;;;;;5111987;28;20462;-67
2020/12/30 11:02:57;;;;;;;21.90;19.93;;;8.10;99.90;;;;;;5112496;28;20437;-67
2020/12/30 11:05:24;;;;;;;22.20;20.20;;;8.10;99.90;;;;;;5112146;28;20751;-66
2020/12/30 11:07:50;;;;;;;22.37;20.40;;;8.10;99.90;;;;;;5112266;28;20441;-66
2020/12/30 11:10:17;;;;;;;22.23;20.33;;;8.10;99.90;;;;;;5111594;28;20986;-67
2020/12/30 11:12:43;;;;;;;23.57;21.43;;;8.00;99.90;;;;;;5112031;28;20452;-67
2020/12/30 11:15:09;;;;;;;22.30;20.50;;;8.00;99.90;;;;;;5111889;28;20442;-66
2020/12/30 11:17:35;;;;;;;22.20;20.10;;;8.00;99.90;;;;;;5111982;28;20438;-67
2020/12/30 11:20:02;;;;;;;21.70;19.80;;;7.90;99.90;;;;;;5111700;28;20453;-66
2020/12/30 11:22:29;;;;;;;20.53;18.53;;;7.80;99.90;;;;;;5111923;28;20522;-66
2020/12/30 11:24:55;;;;;;;22.43;20.23;;;7.70;99.90;;;;;;5111904;28;20445;-66
2020/12/30 11:27:22;;;;;;;22.27;20.17;;;7.60;99.90;;;;;;5111903;28;20441;-66
2020/12/30 11:29:48;;;;;;;20.63;19.03;;;7.50;99.90;;;;;;5111621;28;20991;-66
2020/12/30 11:32:14;;;;;;;20.70;18.70;;;7.40;99.90;;;;;;5111773;28;20437;-66
2020/12/30 11:34:40;;;;;;;20.53;18.83;;;7.40;99.90;;;;;;5111779;28;20433;-66
2020/12/30 11:37:07;;;;;;;22.70;20.63;;;7.30;99.90;;;;;;5111811;28;20453;-66
2020/12/30 11:39:34;;;;;;;19.20;17.70;;;7.30;99.90;;;;;;5111553;28;20473;-66
2020/12/30 11:42:00;;;;;;;20.63;19.10;;;7.40;99.90;;;;;;5111726;28;20441;-67
2020/12/30 11:44:26;;;;;;;20.37;18.77;;;7.50;99.90;;;;;;5115015;28;20437;-67
2020/12/30 11:46:53;;;;;;;23.57;21.23;;;7.60;99.90;;;;;;5116194;28;20438;-67
2020/12/30 11:49:19;;;;;;;21.40;19.30;;;7.80;99.90;;;;;;5115741;28;20511;-67
2020/12/30 11:51:45;;;;;;;22.90;20.73;;;7.80;99.90;;;;;;5115810;28;20473;-66
2020/12/30 11:54:12;;;;;;;21.80;19.87;;;7.80;99.90;;;;;;5116009;28;20772;-68
2020/12/30 11:56:39;;;;;;;22.07;20.13;;;7.80;99.90;;;;;;5109199;28;20490;-67
2020/12/30 11:59:05;;;;;;;21.37;19.57;;;7.90;99.90;;;;;;5110826;28;20510;-65
2020/12/30 12:01:35;;;;;;;21.13;19.30;;;7.80;99.90;;;;;;5115305;28;20448;-64
2020/12/30 12:04:02;;;;;;;21.77;19.90;;;7.50;99.90;;;;;;5115775;28;20437;-64
2020/12/30 12:06:29;;;;;;;22.43;20.63;;;7.40;99.90;;;;;;5115764;28;20441;-64
2020/12/30 12:08:55;;;;;;;21.20;19.50;;;7.40;99.90;;;;;;5115205;28;20481;-65
2020/12/30 12:11:22;;;;;;;21.73;19.90;;;7.30;99.90;;;;;;5115416;28;20433;-65
2020/12/30 12:13:49;;;;;;;21.73;20.10;;;7.30;99.90;;;;;;5115857;28;20448;-65
2020/12/30 12:16:15;;;;;;;22.00;20.30;;;7.20;99.90;;;;;;5115609;28;20791;-64
2020/12/30 12:18:41;;;;;;;22.53;20.40;;;7.30;99.90;;;;;;5115239;28;20494;-65
2020/12/30 12:21:08;;;;;;;23.67;21.20;;;7.30;99.90;;;;;;5115277;28;20437;-66
2020/12/30 12:23:34;;;;;;;21.60;19.90;;;7.30;99.90;;;;;;5115306;28;21010;-66
2020/12/30 12:26:01;;;;;;;22.27;20.27;;;7.30;99.90;;;;;;5115543;28;20441;-68
2020/12/30 12:28:38;;;;;;;22.60;20.50;;;7.40;99.90;;;;;;5115306;28;20480;-68
2020/12/30 12:31:05;;;;;;;22.47;20.47;;;7.30;99.90;;;;;;5115146;28;20460;-65
2020/12/30 12:33:32;;;;;;;23.90;21.93;;;7.50;99.90;;;;;;5115257;28;20898;-67
2020/12/30 12:35:58;;;;;;;24.83;22.70;;;7.70;99.90;;;;;;5115203;28;20442;-68
2020/12/30 12:38:25;;;;;;;22.87;21.10;;;7.60;99.90;;;;;;5115244;28;20438;-67
2020/12/30 12:40:51;;;;;;;22.60;20.70;;;7.70;99.90;;;;;;5114712;28;20474;-66